sensor_id;sensor_type;location;lat;lon;timestamp;P1;durP1;ratioP1;P2;durP2;ratioP2
69712;SDS011;56980;51.826;4.424;2022-08-21T00:00:14;6.33;;;2.40;;
69712;SDS011;56980;51.826;4.424;2022-08-21T00:02:44;9.90;;;2.72;;
69712;SDS011;56980;51.826;4.424;2022-08-21T00:05:12;6.25;;;1.80;;
69712;SDS011;56980;51.826;4.424;2022-08-21T00:07:37;7.73;;;2.20;;
69712;SDS011;56980;51.826;4.424;2022-08-21T00:10:03;7.07;;;2.03;;
69712;SDS011;56980;51.826;4.424;2022-08-21T00:12:29;6.82;;;1.98;;
69712;SDS011;56980;51.826;4.424;2022-08-21T00:14:56;4.72;;;2.15;;
69712;SDS011;56980;51.826;4.424;2022-08-21T00:17:21;5.27;;;1.73;;
69712;SDS011;56980;51.826;4.424;2022-08-21T00:19:47;4.00;;;1.73;;
69712;SDS011;56980;51.826;4.424;2022-08-21T00:22:13;4.67;;;1.67;;
69712;SDS011;56980;51.826;4.424;2022-08-21T00:24:38;6.10;;;1.77;;
69712;SDS011;56980;51.826;4.424;2022-08-21T00:27:03;6.27;;;1.80;;
69712;SDS011;56980;51.826;4.424;2022-08-21T00:29:29;10.03;;;1.83;;
69712;SDS011;56980;51.826;4.424;2022-08-21T00:31:54;4.97;;;2.03;;
69712;SDS011;56980;51.826;4.424;2022-08-21T00:34:20;8.68;;;1.90;;
69712;SDS011;56980;51.826;4.424;2022-08-21T00:36:45;6.53;;;1.85;;
69712;SDS011;56980;51.826;4.424;2022-08-21T00:39:10;5.07;;;1.70;;
69712;SDS011;56980;51.826;4.424;2022-08-21T00:41:37;8.60;;;2.33;;
69712;SDS011;56980;51.826;4.424;2022-08-21T00:44:04;8.27;;;3.05;;
69712;SDS011;56980;51.826;4.424;2022-08-21T00:46:34;6.28;;;2.10;;
69712;SDS011;56980;51.826;4.424;2022-08-21T00:49:00;6.73;;;1.83;;
69712;SDS011;56980;51.826;4.424;2022-08-21T00:51:35;5.28;;;1.45;;
69712;SDS011;56980;51.826;4.424;2022-08-21T00:54:08;4.57;;;1.67;;
69712;SDS011;56980;51.826;4.424;2022-08-21T00:56:35;8.13;;;2.05;;
69712;SDS011;56980;51.826;4.424;2022-08-21T00:59:01;7.60;;;1.90;;
69712;SDS011;56980;51.826;4.424;2022-08-21T01:01:27;7.25;;;1.73;;
69712;SDS011;56980;51.826;4.424;2022-08-21T01:03:53;7.17;;;1.87;;
69712;SDS011;56980;51.826;4.424;2022-08-21T01:06:19;14.90;;;1.83;;
69712;SDS011;56980;51.826;4.424;2022-08-21T01:08:44;6.83;;;1.70;;
69712;SDS011;56980;51.826;4.424;2022-08-21T01:11:10;7.70;;;2.00;;
69712;SDS011;56980;51.826;4.424;2022-08-21T01:13:36;8.63;;;1.60;;
69712;SDS011;56980;51.826;4.424;2022-08-21T01:16:04;11.20;;;2.13;;
69712;SDS011;56980;51.826;4.424;2022-08-21T01:18:33;6.47;;;1.60;;
69712;SDS011;56980;51.826;4.424;2022-08-21T01:21:04;5.00;;;1.50;;
69712;SDS011;56980;51.826;4.424;2022-08-21T01:23:30;7.97;;;1.63;;
69712;SDS011;56980;51.826;4.424;2022-08-21T01:25:55;6.03;;;1.50;;
69712;SDS011;56980;51.826;4.424;2022-08-21T01:28:21;5.10;;;1.50;;
69712;SDS011;56980;51.826;4.424;2022-08-21T01:30:47;5.53;;;1.60;;
69712;SDS011;56980;51.826;4.424;2022-08-21T01:33:15;5.45;;;1.73;;
69712;SDS011;56980;51.826;4.424;2022-08-21T01:35:42;7.03;;;1.70;;
69712;SDS011;56980;51.826;4.424;2022-08-21T01:38:08;10.57;;;1.93;;
69712;SDS011;56980;51.826;4.424;2022-08-21T01:40:34;5.33;;;1.77;;
69712;SDS011;56980;51.826;4.424;2022-08-21T01:42:59;6.13;;;1.80;;
69712;SDS011;56980;51.826;4.424;2022-08-21T01:45:25;7.77;;;1.37;;
69712;SDS011;56980;51.826;4.424;2022-08-21T01:47:50;9.27;;;1.70;;
69712;SDS011;56980;51.826;4.424;2022-08-21T01:50:17;6.17;;;1.50;;
69712;SDS011;56980;51.826;4.424;2022-08-21T01:52:44;6.47;;;1.63;;
69712;SDS011;56980;51.826;4.424;2022-08-21T01:55:10;6.38;;;1.98;;
69712;SDS011;56980;51.826;4.424;2022-08-21T01:57:40;5.10;;;1.70;;
69712;SDS011;56980;51.826;4.424;2022-08-21T02:00:07;5.75;;;1.73;;
69712;SDS011;56980;51.826;4.424;2022-08-21T02:02:36;6.10;;;1.92;;
69712;SDS011;56980;51.826;4.424;2022-08-21T02:05:01;3.53;;;1.53;;
69712;SDS011;56980;51.826;4.424;2022-08-21T02:07:34;4.60;;;1.55;;
69712;SDS011;56980;51.826;4.424;2022-08-21T02:10:01;3.35;;;1.42;;
69712;SDS011;56980;51.826;4.424;2022-08-21T02:12:26;5.73;;;1.87;;
69712;SDS011;56980;51.826;4.424;2022-08-21T02:14:52;5.53;;;1.40;;
69712;SDS011;56980;51.826;4.424;2022-08-21T02:17:17;6.57;;;1.85;;
69712;SDS011;56980;51.826;4.424;2022-08-21T02:19:42;5.03;;;1.50;;
69712;SDS011;56980;51.826;4.424;2022-08-21T02:22:09;5.97;;;1.50;;
69712;SDS011;56980;51.826;4.424;2022-08-21T02:24:35;5.00;;;1.45;;
69712;SDS011;56980;51.826;4.424;2022-08-21T02:27:01;6.28;;;1.60;;
69712;SDS011;56980;51.826;4.424;2022-08-21T02:29:27;6.35;;;1.65;;
69712;SDS011;56980;51.826;4.424;2022-08-21T02:31:52;4.95;;;1.67;;
69712;SDS011;56980;51.826;4.424;2022-08-21T02:34:18;6.20;;;1.73;;
69712;SDS011;56980;51.826;4.424;2022-08-21T02:36:44;5.28;;;1.80;;
69712;SDS011;56980;51.826;4.424;2022-08-21T02:39:09;6.33;;;2.00;;
69712;SDS011;56980;51.826;4.424;2022-08-21T02:41:34;5.43;;;1.67;;
69712;SDS011;56980;51.826;4.424;2022-08-21T02:44:00;6.03;;;1.57;;
69712;SDS011;56980;51.826;4.424;2022-08-21T02:46:25;7.77;;;1.80;;
69712;SDS011;56980;51.826;4.424;2022-08-21T02:48:50;4.80;;;1.50;;
69712;SDS011;56980;51.826;4.424;2022-08-21T02:51:17;5.77;;;1.80;;
69712;SDS011;56980;51.826;4.424;2022-08-21T02:53:45;9.50;;;1.60;;
69712;SDS011;56980;51.826;4.424;2022-08-21T02:56:13;5.63;;;1.70;;
69712;SDS011;56980;51.826;4.424;2022-08-21T02:58:42;7.05;;;1.58;;
69712;SDS011;56980;51.826;4.424;2022-08-21T03:01:10;7.10;;;1.70;;
69712;SDS011;56980;51.826;4.424;2022-08-21T03:03:38;9.20;;;2.10;;
69712;SDS011;56980;51.826;4.424;2022-08-21T03:06:06;5.47;;;1.60;;
69712;SDS011;56980;51.826;4.424;2022-08-21T03:08:33;9.10;;;2.03;;
69712;SDS011;56980;51.826;4.424;2022-08-21T03:10:59;10.23;;;1.92;;
69712;SDS011;56980;51.826;4.424;2022-08-21T03:13:24;6.47;;;1.63;;
69712;SDS011;56980;51.826;4.424;2022-08-21T03:15:50;10.23;;;1.77;;
69712;SDS011;56980;51.826;4.424;2022-08-21T03:18:16;4.40;;;1.60;;
69712;SDS011;56980;51.826;4.424;2022-08-21T03:20:42;6.90;;;1.67;;
69712;SDS011;56980;51.826;4.424;2022-08-21T03:23:10;9.63;;;2.47;;
69712;SDS011;56980;51.826;4.424;2022-08-21T03:25:36;8.75;;;3.10;;
69712;SDS011;56980;51.826;4.424;2022-08-21T03:28:03;8.05;;;2.13;;
69712;SDS011;56980;51.826;4.424;2022-08-21T03:30:30;9.90;;;2.20;;
69712;SDS011;56980;51.826;4.424;2022-08-21T03:32:56;8.63;;;2.20;;
69712;SDS011;56980;51.826;4.424;2022-08-21T03:35:26;9.65;;;2.53;;
69712;SDS011;56980;51.826;4.424;2022-08-21T03:37:52;9.10;;;2.20;;
69712;SDS011;56980;51.826;4.424;2022-08-21T03:40:19;6.40;;;2.17;;
69712;SDS011;56980;51.826;4.424;2022-08-21T03:42:45;7.13;;;1.92;;
69712;SDS011;56980;51.826;4.424;2022-08-21T03:45:12;8.65;;;1.92;;
69712;SDS011;56980;51.826;4.424;2022-08-21T03:47:38;11.05;;;2.72;;
69712;SDS011;56980;51.826;4.424;2022-08-21T03:50:03;8.97;;;2.33;;
69712;SDS011;56980;51.826;4.424;2022-08-21T03:52:29;7.15;;;1.73;;
69712;SDS011;56980;51.826;4.424;2022-08-21T03:54:55;7.28;;;2.05;;
69712;SDS011;56980;51.826;4.424;2022-08-21T03:57:20;14.57;;;2.33;;
69712;SDS011;56980;51.826;4.424;2022-08-21T03:59:46;11.30;;;2.57;;
69712;SDS011;56980;51.826;4.424;2022-08-21T04:02:12;9.55;;;2.67;;
69712;SDS011;56980;51.826;4.424;2022-08-21T04:04:41;6.75;;;2.15;;
69712;SDS011;56980;51.826;4.424;2022-08-21T04:07:07;7.72;;;2.10;;
69712;SDS011;56980;51.826;4.424;2022-08-21T04:09:33;11.40;;;2.73;;
69712;SDS011;56980;51.826;4.424;2022-08-21T04:11:58;7.90;;;2.40;;
69712;SDS011;56980;51.826;4.424;2022-08-21T04:14:25;9.38;;;3.65;;
69712;SDS011;56980;51.826;4.424;2022-08-21T04:16:50;13.63;;;3.10;;
69712;SDS011;56980;51.826;4.424;2022-08-21T04:19:15;11.95;;;3.45;;
69712;SDS011;56980;51.826;4.424;2022-08-21T04:21:41;13.93;;;2.83;;
69712;SDS011;56980;51.826;4.424;2022-08-21T04:24:07;9.27;;;2.90;;
69712;SDS011;56980;51.826;4.424;2022-08-21T04:26:34;9.10;;;3.92;;
69712;SDS011;56980;51.826;4.424;2022-08-21T04:29:01;6.43;;;3.00;;
69712;SDS011;56980;51.826;4.424;2022-08-21T04:31:27;9.73;;;2.70;;
69712;SDS011;56980;51.826;4.424;2022-08-21T04:33:53;10.10;;;3.07;;
69712;SDS011;56980;51.826;4.424;2022-08-21T04:36:19;18.17;;;3.58;;
69712;SDS011;56980;51.826;4.424;2022-08-21T04:38:44;11.67;;;3.90;;
69712;SDS011;56980;51.826;4.424;2022-08-21T04:41:09;11.00;;;4.00;;
69712;SDS011;56980;51.826;4.424;2022-08-21T04:43:35;11.97;;;3.90;;
69712;SDS011;56980;51.826;4.424;2022-08-21T04:46:00;8.95;;;3.35;;
69712;SDS011;56980;51.826;4.424;2022-08-21T04:48:26;10.68;;;3.33;;
69712;SDS011;56980;51.826;4.424;2022-08-21T04:51:09;10.07;;;3.23;;
69712;SDS011;56980;51.826;4.424;2022-08-21T04:56:22;14.80;;;4.10;;
69712;SDS011;56980;51.826;4.424;2022-08-21T04:58:52;9.40;;;3.58;;
69712;SDS011;56980;51.826;4.424;2022-08-21T05:01:21;13.02;;;3.75;;
69712;SDS011;56980;51.826;4.424;2022-08-21T05:03:50;15.43;;;3.92;;
69712;SDS011;56980;51.826;4.424;2022-08-21T05:06:19;14.13;;;4.32;;
69712;SDS011;56980;51.826;4.424;2022-08-21T05:09:02;9.70;;;3.40;;
69712;SDS011;56980;51.826;4.424;2022-08-21T05:11:32;11.15;;;3.30;;
69712;SDS011;56980;51.826;4.424;2022-08-21T05:13:58;11.43;;;3.63;;
69712;SDS011;56980;51.826;4.424;2022-08-21T05:16:23;10.48;;;3.13;;
69712;SDS011;56980;51.826;4.424;2022-08-21T05:18:49;11.57;;;3.53;;
69712;SDS011;56980;51.826;4.424;2022-08-21T05:21:15;8.30;;;3.63;;
69712;SDS011;56980;51.826;4.424;2022-08-21T05:23:40;10.07;;;3.33;;
69712;SDS011;56980;51.826;4.424;2022-08-21T05:26:06;15.17;;;3.50;;
69712;SDS011;56980;51.826;4.424;2022-08-21T05:28:31;10.67;;;3.23;;
69712;SDS011;56980;51.826;4.424;2022-08-21T05:30:57;8.98;;;3.58;;
69712;SDS011;56980;51.826;4.424;2022-08-21T05:33:22;12.37;;;3.37;;
69712;SDS011;56980;51.826;4.424;2022-08-21T05:35:51;11.90;;;3.87;;
69712;SDS011;56980;51.826;4.424;2022-08-21T05:38:20;16.90;;;3.30;;
69712;SDS011;56980;51.826;4.424;2022-08-21T05:40:46;12.20;;;3.33;;
69712;SDS011;56980;51.826;4.424;2022-08-21T05:43:11;11.60;;;3.20;;
69712;SDS011;56980;51.826;4.424;2022-08-21T05:45:36;13.30;;;3.87;;
69712;SDS011;56980;51.826;4.424;2022-08-21T05:48:06;14.43;;;3.50;;
69712;SDS011;56980;51.826;4.424;2022-08-21T05:50:37;9.48;;;3.30;;
69712;SDS011;56980;51.826;4.424;2022-08-21T05:53:03;10.60;;;2.83;;
69712;SDS011;56980;51.826;4.424;2022-08-21T05:55:29;8.77;;;3.70;;
69712;SDS011;56980;51.826;4.424;2022-08-21T05:57:54;12.50;;;3.53;;
69712;SDS011;56980;51.826;4.424;2022-08-21T06:00:20;10.23;;;3.30;;
69712;SDS011;56980;51.826;4.424;2022-08-21T06:02:47;13.52;;;3.40;;
69712;SDS011;56980;51.826;4.424;2022-08-21T06:05:14;24.63;;;3.63;;
69712;SDS011;56980;51.826;4.424;2022-08-21T06:07:40;11.83;;;3.10;;
69712;SDS011;56980;51.826;4.424;2022-08-21T06:10:05;14.97;;;3.40;;
69712;SDS011;56980;51.826;4.424;2022-08-21T06:12:31;15.17;;;3.70;;
69712;SDS011;56980;51.826;4.424;2022-08-21T06:14:56;12.30;;;3.53;;
69712;SDS011;56980;51.826;4.424;2022-08-21T06:17:21;11.57;;;3.13;;
69712;SDS011;56980;51.826;4.424;2022-08-21T06:19:50;13.32;;;3.67;;
69712;SDS011;56980;51.826;4.424;2022-08-21T06:22:17;10.57;;;3.38;;
69712;SDS011;56980;51.826;4.424;2022-08-21T06:24:43;9.63;;;3.38;;
69712;SDS011;56980;51.826;4.424;2022-08-21T06:27:08;10.97;;;3.30;;
69712;SDS011;56980;51.826;4.424;2022-08-21T06:29:34;15.52;;;3.70;;
69712;SDS011;56980;51.826;4.424;2022-08-21T06:32:00;14.57;;;3.60;;
69712;SDS011;56980;51.826;4.424;2022-08-21T06:34:26;12.88;;;3.30;;
69712;SDS011;56980;51.826;4.424;2022-08-21T06:36:51;10.13;;;4.10;;
69712;SDS011;56980;51.826;4.424;2022-08-21T06:39:17;14.73;;;4.17;;
69712;SDS011;56980;51.826;4.424;2022-08-21T06:41:42;15.32;;;3.55;;
69712;SDS011;56980;51.826;4.424;2022-08-21T06:44:08;8.30;;;3.67;;
69712;SDS011;56980;51.826;4.424;2022-08-21T06:46:34;17.13;;;4.13;;
69712;SDS011;56980;51.826;4.424;2022-08-21T06:48:59;15.37;;;4.30;;
69712;SDS011;56980;51.826;4.424;2022-08-21T06:51:25;12.15;;;4.15;;
69712;SDS011;56980;51.826;4.424;2022-08-21T06:53:51;15.27;;;4.00;;
69712;SDS011;56980;51.826;4.424;2022-08-21T06:56:17;11.80;;;3.78;;
69712;SDS011;56980;51.826;4.424;2022-08-21T06:58:43;10.20;;;4.07;;
69712;SDS011;56980;51.826;4.424;2022-08-21T07:01:08;17.95;;;4.10;;
69712;SDS011;56980;51.826;4.424;2022-08-21T07:03:35;14.30;;;3.50;;
69712;SDS011;56980;51.826;4.424;2022-08-21T07:06:04;10.65;;;3.40;;
69712;SDS011;56980;51.826;4.424;2022-08-21T07:08:30;12.95;;;4.05;;
69712;SDS011;56980;51.826;4.424;2022-08-21T07:10:56;13.23;;;3.80;;
69712;SDS011;56980;51.826;4.424;2022-08-21T07:13:23;13.30;;;3.65;;
69712;SDS011;56980;51.826;4.424;2022-08-21T07:15:49;11.25;;;3.75;;
69712;SDS011;56980;51.826;4.424;2022-08-21T07:18:14;13.80;;;4.80;;
69712;SDS011;56980;51.826;4.424;2022-08-21T07:20:40;10.35;;;3.97;;
69712;SDS011;56980;51.826;4.424;2022-08-21T07:23:08;9.40;;;3.95;;
69712;SDS011;56980;51.826;4.424;2022-08-21T07:25:36;15.27;;;4.55;;
69712;SDS011;56980;51.826;4.424;2022-08-21T07:28:02;23.92;;;4.65;;
69712;SDS011;56980;51.826;4.424;2022-08-21T07:30:27;13.23;;;3.67;;
69712;SDS011;56980;51.826;4.424;2022-08-21T07:32:53;18.80;;;4.40;;
69712;SDS011;56980;51.826;4.424;2022-08-21T07:35:19;13.55;;;3.83;;
69712;SDS011;56980;51.826;4.424;2022-08-21T07:37:45;15.30;;;3.93;;
69712;SDS011;56980;51.826;4.424;2022-08-21T07:40:11;11.48;;;3.70;;
69712;SDS011;56980;51.826;4.424;2022-08-21T07:42:44;13.50;;;3.95;;
69712;SDS011;56980;51.826;4.424;2022-08-21T07:45:12;17.17;;;4.35;;
69712;SDS011;56980;51.826;4.424;2022-08-21T07:47:38;17.13;;;4.85;;
69712;SDS011;56980;51.826;4.424;2022-08-21T07:50:05;12.93;;;3.80;;
69712;SDS011;56980;51.826;4.424;2022-08-21T07:52:31;18.45;;;4.13;;
69712;SDS011;56980;51.826;4.424;2022-08-21T07:54:58;11.63;;;3.30;;
69712;SDS011;56980;51.826;4.424;2022-08-21T07:57:23;12.90;;;3.73;;
69712;SDS011;56980;51.826;4.424;2022-08-21T07:59:51;18.48;;;3.45;;
69712;SDS011;56980;51.826;4.424;2022-08-21T08:02:28;8.53;;;2.90;;
69712;SDS011;56980;51.826;4.424;2022-08-21T08:04:57;14.63;;;3.55;;
69712;SDS011;56980;51.826;4.424;2022-08-21T08:07:24;10.30;;;3.15;;
69712;SDS011;56980;51.826;4.424;2022-08-21T08:09:49;14.33;;;2.80;;
69712;SDS011;56980;51.826;4.424;2022-08-21T08:12:14;16.03;;;3.67;;
69712;SDS011;56980;51.826;4.424;2022-08-21T08:14:40;10.60;;;2.80;;
69712;SDS011;56980;51.826;4.424;2022-08-21T08:17:06;14.50;;;3.03;;
69712;SDS011;56980;51.826;4.424;2022-08-21T08:19:31;15.32;;;3.25;;
69712;SDS011;56980;51.826;4.424;2022-08-21T08:21:57;11.40;;;2.70;;
69712;SDS011;56980;51.826;4.424;2022-08-21T08:24:22;13.98;;;3.05;;
69712;SDS011;56980;51.826;4.424;2022-08-21T08:26:48;11.43;;;2.43;;
69712;SDS011;56980;51.826;4.424;2022-08-21T08:29:13;11.73;;;3.00;;
69712;SDS011;56980;51.826;4.424;2022-08-21T08:31:38;11.07;;;2.93;;
69712;SDS011;56980;51.826;4.424;2022-08-21T08:34:04;9.73;;;2.90;;
69712;SDS011;56980;51.826;4.424;2022-08-21T08:36:34;10.75;;;2.55;;
69712;SDS011;56980;51.826;4.424;2022-08-21T08:39:03;12.82;;;2.40;;
69712;SDS011;56980;51.826;4.424;2022-08-21T08:41:29;13.73;;;2.55;;
69712;SDS011;56980;51.826;4.424;2022-08-21T08:43:58;9.55;;;2.40;;
69712;SDS011;56980;51.826;4.424;2022-08-21T08:46:36;8.45;;;2.10;;
69712;SDS011;56980;51.826;4.424;2022-08-21T08:51:47;8.80;;;2.08;;
69712;SDS011;56980;51.826;4.424;2022-08-21T08:54:39;15.55;;;3.15;;
69712;SDS011;56980;51.826;4.424;2022-08-21T08:57:10;15.02;;;2.75;;
69712;SDS011;56980;51.826;4.424;2022-08-21T08:59:46;9.80;;;2.30;;
69712;SDS011;56980;51.826;4.424;2022-08-21T09:02:15;10.57;;;2.83;;
69712;SDS011;56980;51.826;4.424;2022-08-21T09:04:42;12.97;;;2.13;;
69712;SDS011;56980;51.826;4.424;2022-08-21T09:07:16;14.23;;;3.33;;
69712;SDS011;56980;51.826;4.424;2022-08-21T09:12:33;7.57;;;2.13;;
69712;SDS011;56980;51.826;4.424;2022-08-21T09:24:18;9.73;;;2.85;;
69712;SDS011;56980;51.826;4.424;2022-08-21T09:26:47;10.13;;;2.28;;
69712;SDS011;56980;51.826;4.424;2022-08-21T09:29:39;6.53;;;2.03;;
69712;SDS011;56980;51.826;4.424;2022-08-21T09:32:16;7.10;;;1.67;;
69712;SDS011;56980;51.826;4.424;2022-08-21T09:34:54;9.53;;;1.60;;
69712;SDS011;56980;51.826;4.424;2022-08-21T09:37:21;10.75;;;2.20;;
69712;SDS011;56980;51.826;4.424;2022-08-21T09:39:46;9.27;;;2.07;;
69712;SDS011;56980;51.826;4.424;2022-08-21T09:42:11;10.13;;;2.20;;
69712;SDS011;56980;51.826;4.424;2022-08-21T09:44:47;13.23;;;2.50;;
69712;SDS011;56980;51.826;4.424;2022-08-21T09:47:13;8.40;;;2.00;;
69712;SDS011;56980;51.826;4.424;2022-08-21T09:49:39;10.50;;;1.93;;
69712;SDS011;56980;51.826;4.424;2022-08-21T09:52:15;10.18;;;1.70;;
69712;SDS011;56980;51.826;4.424;2022-08-21T09:54:44;17.73;;;1.70;;
69712;SDS011;56980;51.826;4.424;2022-08-21T09:57:12;7.50;;;1.85;;
69712;SDS011;56980;51.826;4.424;2022-08-21T10:02:40;10.68;;;2.03;;
69712;SDS011;56980;51.826;4.424;2022-08-21T10:05:15;11.57;;;2.20;;
69712;SDS011;56980;51.826;4.424;2022-08-21T10:07:44;15.35;;;2.42;;
69712;SDS011;56980;51.826;4.424;2022-08-21T10:13:06;9.38;;;2.33;;
69712;SDS011;56980;51.826;4.424;2022-08-21T10:18:37;4.53;;;1.40;;
69712;SDS011;56980;51.826;4.424;2022-08-21T10:24:07;23.00;;;2.83;;
69712;SDS011;56980;51.826;4.424;2022-08-21T10:36:14;11.52;;;1.80;;
69712;SDS011;56980;51.826;4.424;2022-08-21T10:44:30;4.35;;;1.83;;
69712;SDS011;56980;51.826;4.424;2022-08-21T10:55:15;6.40;;;2.08;;
69712;SDS011;56980;51.826;4.424;2022-08-21T10:57:50;6.20;;;1.50;;
69712;SDS011;56980;51.826;4.424;2022-08-21T11:00:19;6.50;;;1.80;;
69712;SDS011;56980;51.826;4.424;2022-08-21T11:05:34;5.70;;;1.85;;
69712;SDS011;56980;51.826;4.424;2022-08-21T11:08:10;7.78;;;1.58;;
69712;SDS011;56980;51.826;4.424;2022-08-21T11:10:40;8.18;;;1.63;;
69712;SDS011;56980;51.826;4.424;2022-08-21T11:13:25;8.87;;;2.20;;
69712;SDS011;56980;51.826;4.424;2022-08-21T11:24:44;12.40;;;2.00;;
69712;SDS011;56980;51.826;4.424;2022-08-21T11:27:23;5.17;;;1.53;;
69712;SDS011;56980;51.826;4.424;2022-08-21T11:29:53;7.18;;;1.50;;
69712;SDS011;56980;51.826;4.424;2022-08-21T11:32:28;7.05;;;1.63;;
69712;SDS011;56980;51.826;4.424;2022-08-21T11:38:01;7.05;;;1.70;;
69712;SDS011;56980;51.826;4.424;2022-08-21T11:40:51;9.03;;;1.80;;
69712;SDS011;56980;51.826;4.424;2022-08-21T11:46:07;6.30;;;1.92;;
69712;SDS011;56980;51.826;4.424;2022-08-21T11:54:50;4.33;;;1.53;;
69712;SDS011;56980;51.826;4.424;2022-08-21T11:57:25;7.40;;;1.73;;
69712;SDS011;56980;51.826;4.424;2022-08-21T12:02:50;6.20;;;2.28;;
69712;SDS011;56980;51.826;4.424;2022-08-21T12:05:38;5.93;;;2.05;;
69712;SDS011;56980;51.826;4.424;2022-08-21T12:08:26;5.87;;;1.80;;
69712;SDS011;56980;51.826;4.424;2022-08-21T12:11:03;5.05;;;1.40;;
69712;SDS011;56980;51.826;4.424;2022-08-21T12:13:33;8.43;;;2.00;;
69712;SDS011;56980;51.826;4.424;2022-08-21T12:18:33;7.05;;;2.03;;
69712;SDS011;56980;51.826;4.424;2022-08-21T12:21:16;7.00;;;2.17;;
69712;SDS011;56980;51.826;4.424;2022-08-21T12:23:45;7.75;;;1.63;;
69712;SDS011;56980;51.826;4.424;2022-08-21T12:26:29;12.05;;;2.75;;
69712;SDS011;56980;51.826;4.424;2022-08-21T12:31:58;11.18;;;2.20;;
69712;SDS011;56980;51.826;4.424;2022-08-21T12:34:34;10.73;;;3.08;;
69712;SDS011;56980;51.826;4.424;2022-08-21T12:37:03;4.95;;;1.70;;
69712;SDS011;56980;51.826;4.424;2022-08-21T12:39:33;8.02;;;1.80;;
69712;SDS011;56980;51.826;4.424;2022-08-21T12:44:44;9.10;;;1.58;;
69712;SDS011;56980;51.826;4.424;2022-08-21T12:50:19;4.93;;;1.70;;
69712;SDS011;56980;51.826;4.424;2022-08-21T12:52:58;5.75;;;1.40;;
69712;SDS011;56980;51.826;4.424;2022-08-21T12:55:30;6.70;;;1.40;;
69712;SDS011;56980;51.826;4.424;2022-08-21T12:57:57;8.02;;;1.90;;
69712;SDS011;56980;51.826;4.424;2022-08-21T13:00:24;6.55;;;1.35;;
69712;SDS011;56980;51.826;4.424;2022-08-21T13:02:52;7.70;;;1.67;;
69712;SDS011;56980;51.826;4.424;2022-08-21T13:05:23;6.73;;;1.37;;
69712;SDS011;56980;51.826;4.424;2022-08-21T13:07:49;6.43;;;1.30;;
69712;SDS011;56980;51.826;4.424;2022-08-21T13:10:26;5.75;;;1.33;;
69712;SDS011;56980;51.826;4.424;2022-08-21T13:13:19;9.37;;;1.37;;
69712;SDS011;56980;51.826;4.424;2022-08-21T13:15:47;5.75;;;1.17;;
69712;SDS011;56980;51.826;4.424;2022-08-21T13:18:23;7.60;;;1.50;;
69712;SDS011;56980;51.826;4.424;2022-08-21T13:20:50;6.00;;;1.23;;
69712;SDS011;56980;51.826;4.424;2022-08-21T13:23:27;6.80;;;1.33;;
69712;SDS011;56980;51.826;4.424;2022-08-21T13:25:54;10.75;;;1.88;;
69712;SDS011;56980;51.826;4.424;2022-08-21T13:28:21;5.40;;;1.50;;
69712;SDS011;56980;51.826;4.424;2022-08-21T13:30:48;7.63;;;1.67;;
69712;SDS011;56980;51.826;4.424;2022-08-21T13:33:19;10.20;;;1.60;;
69712;SDS011;56980;51.826;4.424;2022-08-21T13:35:51;8.07;;;1.43;;
69712;SDS011;56980;51.826;4.424;2022-08-21T13:38:39;6.50;;;1.40;;
69712;SDS011;56980;51.826;4.424;2022-08-21T13:43:44;6.70;;;1.70;;
69712;SDS011;56980;51.826;4.424;2022-08-21T13:46:14;7.93;;;1.58;;
69712;SDS011;56980;51.826;4.424;2022-08-21T13:48:48;3.90;;;1.30;;
69712;SDS011;56980;51.826;4.424;2022-08-21T13:51:14;15.73;;;2.00;;
69712;SDS011;56980;51.826;4.424;2022-08-21T13:56:09;5.43;;;1.50;;
69712;SDS011;56980;51.826;4.424;2022-08-21T13:58:46;6.82;;;1.50;;
69712;SDS011;56980;51.826;4.424;2022-08-21T14:03:47;8.45;;;1.88;;
69712;SDS011;56980;51.826;4.424;2022-08-21T14:06:21;4.40;;;1.30;;
69712;SDS011;56980;51.826;4.424;2022-08-21T14:08:53;9.43;;;1.50;;
69712;SDS011;56980;51.826;4.424;2022-08-21T14:11:25;7.03;;;1.52;;
69712;SDS011;56980;51.826;4.424;2022-08-21T14:16:27;12.30;;;1.90;;
69712;SDS011;56980;51.826;4.424;2022-08-21T14:21:33;13.63;;;2.17;;
69712;SDS011;56980;51.826;4.424;2022-08-21T14:24:03;7.47;;;1.87;;
69712;SDS011;56980;51.826;4.424;2022-08-21T14:27:11;5.95;;;1.17;;
69712;SDS011;56980;51.826;4.424;2022-08-21T14:29:32;6.43;;;1.40;;
69712;SDS011;56980;51.826;4.424;2022-08-21T14:32:14;4.43;;;1.55;;
69712;SDS011;56980;51.826;4.424;2022-08-21T14:34:44;3.33;;;1.35;;
69712;SDS011;56980;51.826;4.424;2022-08-21T14:37:09;6.83;;;1.50;;
69712;SDS011;56980;51.826;4.424;2022-08-21T14:39:35;6.50;;;1.30;;
69712;SDS011;56980;51.826;4.424;2022-08-21T14:42:00;5.13;;;1.40;;
69712;SDS011;56980;51.826;4.424;2022-08-21T14:44:26;7.95;;;1.80;;
69712;SDS011;56980;51.826;4.424;2022-08-21T14:46:52;4.70;;;1.67;;
69712;SDS011;56980;51.826;4.424;2022-08-21T14:49:18;5.68;;;1.50;;
69712;SDS011;56980;51.826;4.424;2022-08-21T14:51:43;5.30;;;1.50;;
69712;SDS011;56980;51.826;4.424;2022-08-21T14:54:08;4.67;;;1.37;;
69712;SDS011;56980;51.826;4.424;2022-08-21T14:56:34;6.00;;;1.30;;
69712;SDS011;56980;51.826;4.424;2022-08-21T14:59:02;11.25;;;1.80;;
69712;SDS011;56980;51.826;4.424;2022-08-21T15:01:32;5.13;;;1.70;;
69712;SDS011;56980;51.826;4.424;2022-08-21T15:04:00;6.82;;;1.58;;
69712;SDS011;56980;51.826;4.424;2022-08-21T15:06:26;9.00;;;1.43;;
69712;SDS011;56980;51.826;4.424;2022-08-21T15:08:51;7.70;;;1.70;;
69712;SDS011;56980;51.826;4.424;2022-08-21T15:11:18;9.20;;;1.77;;
69712;SDS011;56980;51.826;4.424;2022-08-21T15:13:46;9.63;;;1.63;;
69712;SDS011;56980;51.826;4.424;2022-08-21T15:16:15;5.05;;;1.63;;
69712;SDS011;56980;51.826;4.424;2022-08-21T15:18:41;13.00;;;2.40;;
69712;SDS011;56980;51.826;4.424;2022-08-21T15:21:07;26.17;;;2.60;;
69712;SDS011;56980;51.826;4.424;2022-08-21T15:23:33;5.22;;;1.63;;
69712;SDS011;56980;51.826;4.424;2022-08-21T15:26:00;3.73;;;1.10;;
69712;SDS011;56980;51.826;4.424;2022-08-21T15:28:25;10.80;;;2.03;;
69712;SDS011;56980;51.826;4.424;2022-08-21T15:30:51;6.40;;;1.53;;
69712;SDS011;56980;51.826;4.424;2022-08-21T15:33:17;3.53;;;1.35;;
69712;SDS011;56980;51.826;4.424;2022-08-21T15:35:43;4.33;;;1.30;;
69712;SDS011;56980;51.826;4.424;2022-08-21T15:38:10;5.85;;;1.40;;
69712;SDS011;56980;51.826;4.424;2022-08-21T15:40:36;5.50;;;1.25;;
69712;SDS011;56980;51.826;4.424;2022-08-21T15:43:03;6.82;;;1.55;;
69712;SDS011;56980;51.826;4.424;2022-08-21T15:45:30;8.98;;;1.60;;
69712;SDS011;56980;51.826;4.424;2022-08-21T15:47:55;4.73;;;1.80;;
69712;SDS011;56980;51.826;4.424;2022-08-21T15:50:22;9.10;;;1.80;;
69712;SDS011;56980;51.826;4.424;2022-08-21T15:52:49;6.22;;;1.67;;
69712;SDS011;56980;51.826;4.424;2022-08-21T15:55:14;9.03;;;1.67;;
69712;SDS011;56980;51.826;4.424;2022-08-21T15:57:44;6.40;;;1.33;;
69712;SDS011;56980;51.826;4.424;2022-08-21T16:00:16;6.63;;;1.63;;
69712;SDS011;56980;51.826;4.424;2022-08-21T16:02:46;3.40;;;1.60;;
69712;SDS011;56980;51.826;4.424;2022-08-21T16:05:13;8.13;;;1.70;;
69712;SDS011;56980;51.826;4.424;2022-08-21T16:07:41;5.15;;;1.90;;
69712;SDS011;56980;51.826;4.424;2022-08-21T16:10:07;6.78;;;1.88;;
69712;SDS011;56980;51.826;4.424;2022-08-21T16:12:34;7.47;;;1.90;;
69712;SDS011;56980;51.826;4.424;2022-08-21T16:15:07;7.22;;;2.00;;
69712;SDS011;56980;51.826;4.424;2022-08-21T16:17:35;7.68;;;2.20;;
69712;SDS011;56980;51.826;4.424;2022-08-21T16:20:04;6.25;;;1.55;;
69712;SDS011;56980;51.826;4.424;2022-08-21T16:22:33;9.77;;;2.43;;
69712;SDS011;56980;51.826;4.424;2022-08-21T16:24:58;5.88;;;2.00;;
69712;SDS011;56980;51.826;4.424;2022-08-21T16:27:24;5.60;;;1.70;;
69712;SDS011;56980;51.826;4.424;2022-08-21T16:29:49;7.17;;;1.90;;
69712;SDS011;56980;51.826;4.424;2022-08-21T16:32:15;7.50;;;1.83;;